Latest Weather Observations for The Monument

IDQ60801

Issued at 8:02 pm EST Thursday 29 January 2015 (issued every 30 minutes, with the page automatically refreshed every 10 minutes)

About weather observations | Map of weather stations | Latest weather observations for QLD | Other Formats
Station Details ID: 037034 Name: THE MONUMENT AIRPORT Lat: -21.81 Lon: 139.93 Height: 288.4 m
Data from the previous 72 hours. | See also: Recent months at The Monument
Date/Time
EST
Temp
°C
App
Temp
°C
Dew
Point
Rel
Hum
%
Delta-T
°C
Wind Press
QNH
hPa
Press
MSL
hPa
Rain
since 9 am
mm
Dir
 
Spd
km/h
Gust
km/h
Spd
kts
Gust
kts
29/08:00pm 34.0 30.7 6.3 18 15.3 SSE 13 19 7 10 1005.8 1003.4 0.0
29/07:30pm 34.9 30.6 7.1 18 15.6 S 19 24 10 13 1005.4 1003.1 0.0
29/07:00pm 36.0 32.1 7.1 17 16.3 SSE 17 24 9 13 1005.1 1002.8 0.0
29/06:30pm 36.5 31.5 6.6 16 16.7 S 22 32 12 17 1004.8 1002.5 0.0
29/06:00pm 36.4 33.5 6.6 16 16.7 SSE 11 17 6 9 1004.7 1002.4 0.0
29/05:30pm 36.9 34.1 5.0 14 17.4 SSW 9 13 5 7 1004.5 1002.2 0.0
29/05:00pm 36.6 33.1 3.7 13 17.7 SSE 11 19 6 10 1004.6 1002.3 0.0
29/04:30pm 37.0 33.2 4.0 13 17.8 SE 13 26 7 14 1004.7 1002.4 0.0
29/04:00pm 36.7 32.7 4.9 14 17.4 SE 15 26 8 14 1004.7 1002.4 0.0
29/03:30pm 37.1 32.4 5.2 14 17.5 S 19 32 10 17 1005.0 1002.7 0.0
29/03:00pm 37.3 32.4 5.3 14 17.7 SSW 20 33 11 18 1005.1 1002.8 0.0
29/02:30pm 36.4 32.4 6.6 16 16.7 S 17 32 9 17 1005.4 1003.1 0.0
29/02:00pm 37.1 34.0 7.1 16 17.0 SSE 13 26 7 14 1005.9 1003.6 0.0
29/01:30pm 35.8 33.0 7.0 17 16.2 S 11 22 6 12 1006.2 1003.9 0.0
29/01:00pm 35.7 33.3 6.9 17 16.2 SE 9 20 5 11 1006.7 1004.4 0.0
29/12:30pm 34.3 30.6 8.1 20 14.8 ESE 17 26 9 14 1007.0 1004.7 0.0
29/12:00pm 34.7 32.3 9.9 22 14.5 E 13 28 7 15 1007.2 1004.9 0.0
29/11:30am 33.2 31.4 9.3 23 13.7 SSE 9 20 5 11 1007.6 1005.3 0.0
29/11:00am 31.2 28.2 7.6 23 13.1 SSE 13 24 7 13 1007.8 1005.5 0.0
29/10:30am 31.0 28.0 7.5 23 13.0 SSE 13 26 7 14 1008.1 1005.8 0.0
29/10:00am 29.3 25.3 6.7 24 12.2 S 17 26 9 14 1008.3 1006.0 0.0
29/09:30am 28.3 23.9 6.4 25 11.7 S 19 26 10 14 1008.2 1005.9 0.0
29/09:00am 27.9 23.3 6.6 26 11.4 S 20 28 11 15 1008.0 1005.7 0.0
29/08:30am 26.3 21.5 5.8 27 10.7 S 20 28 11 15 1007.7 1005.4 0.0
29/08:00am 25.0 20.2 5.7 29 10.0 SSW 20 28 11 15 1007.6 1005.3 0.0
29/07:30am 23.6 19.2 5.0 30 9.4 SSW 17 22 9 12 1007.5 1005.2 0.0
29/07:00am 21.9 19.0 4.5 32 8.7 SSW 9 11 5 6 1007.4 1005.1 0.0
29/06:30am 20.9 17.9 4.0 33 8.3 SW 9 11 5 6 1007.1 1004.8 0.0
29/06:00am 21.6 18.2 3.8 31 8.7 SSW 11 15 6 8 1006.8 1004.5 0.0
29/05:30am 21.8 18.3 3.5 30 8.9 SSW 11 15 6 8 1006.7 1004.4 0.0
29/05:00am 22.0 18.0 2.7 28 9.3 SSW 13 17 7 9 1006.4 1004.1 0.0
29/04:30am 21.9 18.2 2.1 27 9.4 SSW 11 13 6 7 1006.6 1004.3 0.0
29/04:00am 22.3 18.5 1.9 26 9.7 SSW 11 15 6 8 1006.5 1004.2 0.0
29/03:30am 22.6 18.8 1.6 25 9.9 SSW 11 15 6 8 1006.4 1004.1 0.0
29/03:00am 22.5 18.7 1.5 25 9.9 SSW 11 15 6 8 1006.5 1004.2 0.0
29/02:30am 23.0 19.4 0.8 23 10.4 SSW 9 11 5 6 1006.6 1004.3 0.0
29/02:00am 23.9 20.0 0.9 22 10.9 SSW 11 13 6 7 1006.9 1004.6 0.0
29/01:30am 24.6 20.2 0.2 20 11.4 SSW 13 15 7 8 1007.1 1004.8 0.0
29/01:00am 25.4 21.1 0.8 20 11.7 SSW 13 19 7 10 1007.3 1005.0 0.0
29/12:30am 25.9 20.8 0.5 19 12.1 S 17 19 9 10 1007.3 1005.0 0.0
 
Date/Time
EST
Temp
°C
App
Temp
°C
Dew
Point
Rel
Hum
%
Delta-T
°C
Wind Press
QNH
hPa
Press
MSL
hPa
Rain
since 9 am
mm
Dir
 
Spd
km/h
Gust
km/h
Spd
kts
Gust
kts
28/11:30pm 26.9 21.4 0.6 18 12.6 S 19 24 10 13 1007.6 1005.3 0.0
28/11:00pm 27.4 22.2 0.2 17 13.0 S 17 24 9 13 1007.7 1005.4 0.0
28/10:30pm 28.0 22.3 0.7 17 13.2 S 20 28 11 15 1007.5 1005.2 0.0
28/10:00pm 28.5 22.8 0.3 16 13.6 S 20 30 11 16 1007.1 1004.8 0.0
28/09:30pm 28.7 23.0 -0.5 15 13.9 SSW 19 24 10 13 1006.9 1004.6 0.0
28/09:00pm 29.3 23.7 0.0 15 14.2 SSW 19 26 10 14 1006.8 1004.5 0.0
28/08:30pm 29.8 24.5 -0.5 14 14.5 SSW 17 22 9 12 1006.6 1004.3 0.0
28/08:00pm 30.4 25.0 -1.1 13 15.0 SSW 17 24 9 13 1006.3 1004.0 0.0
28/07:30pm 31.1 24.9 -0.5 13 15.3 SSW 22 30 12 16 1006.1 1003.8 0.0
28/07:00pm 32.1 25.0 -0.9 12 16.0 SSW 26 35 14 19 1005.6 1003.3 0.0
28/06:30pm 32.8 25.1 -0.3 12 16.2 S 30 39 16 21 1005.2 1002.9 0.0
28/06:00pm 33.6 26.7 0.3 12 16.6 SSW 26 37 14 20 1004.8 1002.5 0.0
28/05:30pm 33.6 26.3 0.3 12 16.6 S 28 37 15 20 1004.6 1002.3 0.0
28/05:00pm 34.1 27.7 0.7 12 16.9 S 24 37 13 20 1004.3 1002.0 0.0
28/04:30pm 34.1 27.3 0.7 12 16.8 SSW 26 35 14 19 1004.3 1002.0 0.0
28/04:00pm 34.4 27.6 0.9 12 17.0 S 26 35 14 19 1004.3 1002.0 0.0
28/03:30pm 34.6 28.2 1.1 12 17.0 SSW 24 41 13 22 1004.6 1002.3 0.0
28/03:00pm 34.2 27.8 0.8 12 16.9 S 24 43 13 23 1004.8 1002.5 0.0
28/02:30pm 34.3 27.1 0.8 12 16.9 SSW 28 41 15 22 1005.1 1002.8 0.0
28/02:00pm 33.7 27.0 1.5 13 16.4 SSW 26 39 14 21 1005.5 1003.2 0.0
28/01:30pm 33.2 26.4 1.1 13 16.2 S 26 41 14 22 1006.1 1003.8 0.0
28/01:00pm 31.9 26.3 1.1 14 15.4 SSE 20 32 11 17 1006.4 1004.1 0.0
28/12:30pm 31.7 25.3 1.0 14 15.3 SSW 24 35 13 19 1006.9 1004.6 0.0
28/12:00pm 30.9 24.4 0.3 14 15.0 SSE 24 37 13 20 1007.3 1005.0 0.0
28/11:30am 30.1 24.0 0.6 15 14.4 S 22 33 12 18 1007.7 1005.4 0.0
28/11:00am 30.3 24.4 1.7 16 14.3 S 22 32 12 17 1008.0 1005.7 0.0
28/10:30am 29.1 22.7 0.7 16 13.8 SSE 24 32 13 17 1008.2 1005.9 0.0
28/10:00am 28.1 21.8 1.6 18 13.0 SSE 24 33 13 18 1008.1 1005.8 0.0
28/09:30am 27.6 21.4 1.9 19 12.6 SSE 24 32 13 17 1008.3 1006.0 0.0
28/09:00am 26.6 20.7 1.8 20 12.1 S 22 32 12 17 1008.4 1006.1 0.0
28/08:30am 25.6 18.9 1.7 21 11.6 S 26 37 14 20 1008.3 1006.0 0.0
28/08:00am 24.8 18.9 1.7 22 11.1 S 22 32 12 17 1008.1 1005.8 0.0
28/07:30am 23.5 18.6 1.8 24 10.4 S 17 28 9 15 1007.8 1005.5 0.0
28/07:00am 22.4 17.0 1.4 25 9.9 S 19 24 10 13 1007.7 1005.4 0.0
28/06:30am 21.3 17.0 1.0 26 9.4 S 13 20 7 11 1007.6 1005.3 0.0
28/06:00am 20.2 16.7 1.1 28 8.8 S 9 11 5 6 1007.5 1005.2 0.0
28/05:30am 20.6 17.1 1.0 27 9.0 SSW 9 11 5 6 1007.5 1005.2 0.0
28/05:00am 21.3 17.8 1.0 26 9.4 SSW 9 13 5 7 1007.2 1004.9 0.0
28/04:30am 22.5 17.8 0.9 24 10.1 S 15 20 8 11 1007.1 1004.8 0.0
28/04:00am 23.4 17.7 0.5 22 10.7 S 20 28 11 15 1006.7 1004.4 0.0
28/03:30am 23.8 18.1 0.8 22 10.8 S 20 28 11 15 1006.8 1004.5 0.0
28/03:00am 24.0 18.9 1.0 22 10.9 S 17 22 9 12 1006.8 1004.5 0.0
28/02:30am 24.4 19.7 0.7 21 11.2 S 15 20 8 11 1007.0 1004.7 0.0
28/02:00am 24.9 20.1 0.4 20 11.5 S 15 20 8 11 1007.1 1004.8 0.0
28/01:30am 25.3 19.7 0.0 19 11.8 S 19 24 10 13 1007.3 1005.0 0.0
28/01:00am 25.5 20.3 0.2 19 11.9 S 17 24 9 13 1007.6 1005.3 0.0
28/12:30am 25.6 21.2 0.3 19 11.9 S 13 19 7 10 1007.9 1005.6 0.0
28/12:00am 26.6 21.4 0.4 18 12.5 S 17 24 9 13 1008.1 1005.8 0.0
 
Date/Time
EST
Temp
°C
App
Temp
°C
Dew
Point
Rel
Hum
%
Delta-T
°C
Wind Press
QNH
hPa
Press
MSL
hPa
Rain
since 9 am
mm
Dir
 
Spd
km/h
Gust
km/h
Spd
kts
Gust
kts
27/11:30pm 27.1 21.9 0.0 17 12.8 S 17 22 9 12 1008.3 1006.0 0.0
27/11:00pm 27.3 22.5 0.1 17 13.0 S 15 20 8 11 1008.2 1005.9 0.0
27/10:30pm 27.7 22.9 0.5 17 13.1 S 15 20 8 11 1008.1 1005.8 0.0
27/10:00pm 28.2 23.5 0.9 17 13.3 S 15 20 8 11 1007.8 1005.5 0.0
27/09:30pm 29.0 23.5 0.7 16 13.8 S 19 24 10 13 1007.7 1005.4 0.0
27/09:00pm 29.6 23.8 0.2 15 14.3 S 20 26 11 14 1007.5 1005.2 0.0
27/08:30pm 30.1 24.4 0.6 15 14.4 S 20 30 11 16 1007.2 1004.9 0.0
27/08:00pm 30.7 24.9 0.2 14 14.9 S 20 32 11 17 1007.1 1004.8 0.0
27/07:30pm 31.3 24.8 0.6 14 15.1 S 24 33 13 18 1006.6 1004.3 0.0
27/07:00pm 32.1 24.8 0.2 13 15.8 S 28 39 15 21 1006.1 1003.8 0.0
27/06:30pm 32.8 25.5 -0.3 12 16.2 S 28 41 15 22 1006.0 1003.7 0.0
27/06:00pm 33.7 26.3 -0.8 11 16.9 S 28 37 15 20 1005.8 1003.4 0.0
27/05:30pm 34.2 27.0 0.8 12 16.8 S 28 43 15 23 1005.5 1003.2 0.0
27/05:00pm 34.8 27.5 0.0 11 17.4 SSW 28 39 15 21 1005.5 1003.2 0.0
27/04:30pm 35.2 28.3 0.3 11 17.6 S 26 39 14 21 1005.5 1003.2 0.0
27/04:20pm 35.1 28.0 1.5 12 17.2 S 28 46 15 25 1005.5 1003.2 0.0
27/04:00pm 34.8 28.1 1.2 12 17.2 S 26 41 14 22 1005.6 1003.3 0.0
27/03:30pm 35.2 28.1 1.5 12 17.3 S 28 46 15 25 1006.1 1003.8 0.0
27/03:28pm 35.7 28.7 1.9 12 17.5 S 28 46 15 25 1006.1 1003.8 0.0
27/03:00pm 35.2 27.7 1.5 12 17.3 S 30 43 16 23 1006.5 1004.2 0.0
27/02:30pm 34.7 28.3 1.1 12 17.1 S 24 41 13 22 1006.7 1004.4 0.0
27/02:00pm 34.6 28.4 2.2 13 16.8 S 24 39 13 21 1007.1 1004.8 0.0
27/01:30pm 34.8 28.6 2.3 13 16.8 S 24 39 13 21 1007.5 1005.2 0.0
27/01:00pm 34.2 28.1 2.9 14 16.4 S 24 70 13 38 1007.9 1005.6 0.0
27/12:30pm 33.4 27.2 2.3 14 16.0 S 24 35 13 19 1008.2 1005.9 0.0
27/12:00pm 33.2 26.6 2.1 14 15.9 S 26 35 14 19 1008.6 1006.3 0.0
27/11:30am 32.7 26.2 2.7 15 15.5 S 26 41 14 22 1008.7 1006.4 0.0
27/11:00am 31.9 25.3 2.1 15 15.2 SSE 26 35 14 19 1009.1 1006.9 0.0
27/10:30am 31.3 25.2 2.5 16 14.7 SSE 24 32 13 17 1009.5 1007.2 0.0
27/10:00am 29.5 23.4 2.7 18 13.6 SSE 24 33 13 18 1009.5 1007.2 0.0
27/09:30am 28.7 21.7 2.1 18 13.2 S 28 41 15 22 1009.8 1007.5 0.0
27/09:00am 28.2 21.7 2.4 19 12.9 SSE 26 39 14 21 1009.8 1007.5 0.0
27/08:30am 27.5 21.0 2.6 20 12.4 SSE 26 39 14 21 1009.6 1007.3 0.0
27/08:00am 26.5 20.0 2.4 21 11.9 S 26 37 14 20 1009.6 1007.3 0.0
27/07:30am 25.5 19.3 2.2 22 11.4 S 24 33 13 18 1009.3 1007.1 0.0
27/07:00am 24.8 19.4 2.3 23 11.0 S 20 28 11 15 1008.6 1006.3 0.0
27/06:30am 24.2 19.4 2.4 24 10.6 S 17 24 9 13 1008.4 1006.1 0.0
27/06:00am 24.2 19.7 2.4 24 10.6 S 15 20 8 11 1008.3 1006.0 0.0
27/05:30am 24.7 19.8 2.2 23 10.9 S 17 24 9 13 1008.2 1005.9 0.0
27/05:00am 25.1 19.9 2.5 23 11.1 S 19 26 10 14 1007.9 1005.6 0.0
27/04:30am 25.5 20.4 2.9 23 11.2 S 19 26 10 14 1007.8 1005.5 0.0
27/04:00am 26.2 21.0 3.4 23 11.4 S 20 30 11 16 1007.6 1005.3 0.0
27/03:30am 26.4 21.4 3.6 23 11.5 S 19 26 10 14 1007.4 1005.1 0.0
27/03:00am 26.7 21.6 3.2 22 11.8 SSW 19 26 10 14 1007.2 1004.9 0.0
27/02:30am 26.9 22.1 2.7 21 12.0 SSW 17 26 9 14 1007.3 1005.0 0.0
27/02:00am 27.4 22.2 2.5 20 12.4 SSW 19 24 10 13 1007.4 1005.1 0.0
27/01:30am 27.7 22.4 2.0 19 12.7 SW 19 26 10 14 1007.9 1005.6 0.0
27/01:00am 27.8 22.9 2.1 19 12.7 SSW 17 22 9 12 1008.4 1006.1 0.0
27/12:30am 28.3 23.4 1.7 18 13.1 SSW 17 22 9 12 1008.8 1006.5 0.0
27/12:00am 28.8 23.9 2.1 18 13.3 SSW 17 24 9 13 1008.9 1006.7 0.0
 
Date/Time
EST
Temp
°C
App
Temp
°C
Dew
Point
Rel
Hum
%
Delta-T
°C
Wind Press
QNH
hPa
Press
MSL
hPa
Rain
since 9 am
mm
Dir
 
Spd
km/h
Gust
km/h
Spd
kts
Gust
kts
26/11:30pm 29.8 24.3 2.1 17 13.9 SSW 20 28 11 15 1009.2 1007.0 0.0
26/11:00pm 30.4 25.2 2.6 17 14.1 SSW 19 24 10 13 1009.5 1007.2 0.0
26/10:30pm 30.4 26.0 2.6 17 14.1 SSW 15 20 8 11 1009.3 1007.1 0.0
26/10:00pm 30.7 25.4 2.0 16 14.5 SSW 19 28 10 15 1009.0 1006.8 0.0
26/09:30pm 31.2 25.6 1.5 15 14.9 SSW 20 28 11 15 1008.7 1006.4 0.0
26/09:00pm 31.8 26.2 0.0 13 15.6 SSW 19 24 10 13 1008.5 1006.2 0.0
26/08:30pm 32.3 26.6 -0.7 12 16.0 S 19 26 10 14 1008.2 1005.9 0.0

Other Formats:

Comma delimited format used in spreadsheet applications
http://www.bom.gov.au/fwo/IDQ60801/IDQ60801.94336.axf

JavaScript Object Notation format (JSON) in row-major order
http://www.bom.gov.au/fwo/IDQ60801/IDQ60801.94336.json